createdAt,value
2019-02-16T00:00:51.969Z,69.88
2019-02-16T00:02:00.893Z,69.93
2019-02-16T00:03:09.707Z,70.01
2019-02-16T00:04:18.087Z,70.02
2019-02-16T00:05:26.902Z,70.07
2019-02-16T00:06:35.600Z,70.14
2019-02-16T00:07:44.344Z,70.16
2019-02-16T00:08:53.846Z,70.14
2019-02-16T00:10:07.138Z,70.12
2019-02-16T00:11:15.372Z,70.16
2019-02-16T00:12:23.498Z,70.16
2019-02-16T00:13:32.144Z,70.10
2019-02-16T00:14:41.032Z,70.16
2019-02-16T00:15:49.354Z,70.18
2019-02-16T00:16:57.882Z,70.20
2019-02-16T00:18:05.991Z,70.21
2019-02-16T00:19:15.882Z,70.28
2019-02-16T00:20:24.217Z,70.28
2019-02-16T00:21:32.374Z,70.27
2019-02-16T00:22:40.749Z,70.21
2019-02-16T00:23:49.022Z,70.25
2019-02-16T00:24:57.150Z,70.33
2019-02-16T00:26:05.655Z,70.33
2019-02-16T00:27:13.736Z,70.27
2019-02-16T00:28:22.868Z,70.26
2019-02-16T00:29:31.216Z,70.29
2019-02-16T00:30:39.529Z,70.30
2019-02-16T00:31:47.938Z,70.33
2019-02-16T00:32:56.112Z,70.29
2019-02-16T00:34:04.549Z,70.27
2019-02-16T00:35:12.732Z,70.29
2019-02-16T00:36:21.242Z,70.28
2019-02-16T00:37:29.445Z,70.29
2019-02-16T00:38:37.482Z,70.37
2019-02-16T00:39:45.613Z,70.38
2019-02-16T00:40:53.731Z,70.39
2019-02-16T00:42:01.970Z,70.38
2019-02-16T00:43:10.281Z,70.30
2019-02-16T00:44:18.632Z,70.33
2019-02-16T00:45:26.823Z,70.29
2019-02-16T00:46:35.286Z,70.32
2019-02-16T00:47:43.850Z,70.33
2019-02-16T00:48:52.230Z,70.27
2019-02-16T00:50:04.813Z,70.29
2019-02-16T00:51:14.089Z,70.26
2019-02-16T00:52:22.474Z,70.25
2019-02-16T00:53:30.641Z,70.25
2019-02-16T00:54:38.825Z,70.25
2019-02-16T00:55:47.330Z,70.26
2019-02-16T00:56:55.443Z,70.25
2019-02-16T00:58:03.780Z,70.32
2019-02-16T00:59:12.180Z,70.37
2019-02-16T01:00:20.743Z,70.43
2019-02-16T01:01:29.097Z,70.38
2019-02-16T01:02:37.859Z,70.33
2019-02-16T01:03:46.207Z,70.30
2019-02-16T01:04:54.729Z,70.25
2019-02-16T01:06:03.084Z,70.28
2019-02-16T01:07:11.472Z,70.28
2019-02-16T01:08:19.975Z,70.28
2019-02-16T01:09:28.934Z,70.27
2019-02-16T01:10:37.089Z,70.28
2019-02-16T01:11:45.385Z,70.31
2019-02-16T01:12:53.341Z,70.31
2019-02-16T01:14:01.380Z,70.30
2019-02-16T01:15:10.808Z,70.33
2019-02-16T01:16:18.934Z,70.34
2019-02-16T01:17:26.946Z,70.37
2019-02-16T01:18:35.129Z,70.37
2019-02-16T01:19:43.291Z,70.30
2019-02-16T01:20:51.692Z,70.30
2019-02-16T01:21:59.899Z,70.38
2019-02-16T01:23:07.746Z,70.39
2019-02-16T01:24:16.093Z,70.37
2019-02-16T01:25:24.193Z,70.35
2019-02-16T01:26:32.004Z,70.45
2019-02-16T01:27:40.528Z,70.45
2019-02-16T01:28:49.344Z,70.50
2019-02-16T01:29:57.515Z,70.58
2019-02-16T01:31:05.799Z,70.58
2019-02-16T01:32:14.451Z,70.63
2019-02-16T01:33:22.614Z,70.66
2019-02-16T01:34:31.110Z,70.64
2019-02-16T01:35:39.142Z,70.59
2019-02-16T01:36:47.468Z,70.55
2019-02-16T01:37:56.242Z,70.49
2019-02-16T01:39:05.679Z,70.46
2019-02-16T01:40:14.184Z,70.42
2019-02-16T01:41:22.485Z,70.35
2019-02-16T01:42:30.653Z,70.34
2019-02-16T01:43:39.159Z,70.31
2019-02-16T01:44:48.006Z,70.32
2019-02-16T01:45:56.493Z,70.33
2019-02-16T01:47:04.837Z,70.30
2019-02-16T01:48:13.229Z,70.34
2019-02-16T01:49:21.593Z,70.27
2019-02-16T01:50:30.113Z,70.31
2019-02-16T01:51:40.216Z,70.31
2019-02-16T01:52:48.992Z,70.32
2019-02-16T01:53:58.921Z,70.26
2019-02-16T01:55:09.977Z,70.32
2019-02-16T01:56:18.902Z,70.33
2019-02-16T01:57:27.708Z,70.38
2019-02-16T01:58:36.202Z,70.42
2019-02-16T01:59:45.645Z,70.47
2019-02-16T02:00:53.672Z,70.47
2019-02-16T02:02:01.820Z,70.45
2019-02-16T02:03:10.327Z,70.47
2019-02-16T02:04:18.379Z,70.49
2019-02-16T02:05:26.327Z,70.47
2019-02-16T02:06:34.715Z,70.46
2019-02-16T02:07:43.396Z,70.43
2019-02-16T02:08:51.791Z,70.48
2019-02-16T02:09:59.944Z,70.50
2019-02-16T02:11:08.588Z,70.51
2019-02-16T02:12:16.662Z,70.50
2019-02-16T02:13:24.960Z,70.51
2019-02-16T02:14:32.936Z,70.48
2019-02-16T02:15:41.236Z,70.46
2019-02-16T02:16:49.894Z,70.45
2019-02-16T02:17:58.051Z,70.42
2019-02-16T02:19:06.366Z,70.39
2019-02-16T02:20:14.442Z,70.37
2019-02-16T02:21:22.559Z,70.39
2019-02-16T02:22:31.042Z,70.32
2019-02-16T02:23:39.444Z,70.32
2019-02-16T02:24:48.080Z,70.32
2019-02-16T02:25:56.385Z,70.29
2019-02-16T02:27:04.682Z,70.32
2019-02-16T02:28:12.980Z,70.32
2019-02-16T02:29:21.178Z,70.34
2019-02-16T02:30:29.684Z,70.39
2019-02-16T02:31:38.091Z,70.35
2019-02-16T02:32:46.413Z,70.31
2019-02-16T02:33:54.403Z,70.31
2019-02-16T02:35:02.581Z,70.34
2019-02-16T02:36:10.662Z,70.41
2019-02-16T02:37:19.081Z,70.43
2019-02-16T02:38:26.942Z,70.45
2019-02-16T02:39:35.363Z,70.47
2019-02-16T02:40:43.399Z,70.50
2019-02-16T02:41:51.822Z,70.55
2019-02-16T02:42:59.929Z,70.58
2019-02-16T02:44:07.916Z,70.64
2019-02-16T02:45:16.361Z,70.66
2019-02-16T02:46:24.254Z,70.68
2019-02-16T02:47:32.366Z,70.75
2019-02-16T02:48:40.661Z,70.78
2019-02-16T02:49:48.818Z,70.80
2019-02-16T02:50:56.977Z,70.85
2019-02-16T02:52:05.053Z,70.82
2019-02-16T02:53:13.181Z,70.87
2019-02-16T02:54:21.289Z,70.88
2019-02-16T02:55:29.520Z,70.90
2019-02-16T02:56:37.827Z,70.84
2019-02-16T02:57:45.948Z,70.86
2019-02-16T02:58:53.841Z,70.90
2019-02-16T03:00:02.042Z,70.89
2019-02-16T03:01:12.749Z,70.89
2019-02-16T03:02:20.898Z,70.89
2019-02-16T03:03:29.096Z,70.96
2019-02-16T03:04:36.930Z,71.07
2019-02-16T03:05:45.814Z,71.11
2019-02-16T03:06:54.713Z,71.17
2019-02-16T03:08:03.133Z,71.24
2019-02-16T03:09:13.159Z,71.25
2019-02-16T03:10:21.417Z,71.30
2019-02-16T03:11:29.705Z,71.26
2019-02-16T03:12:40.320Z,71.27
2019-02-16T03:13:48.636Z,71.26
2019-02-16T03:14:57.019Z,71.29
2019-02-16T03:16:05.302Z,71.31
2019-02-16T03:17:14.099Z,71.36
2019-02-16T03:18:22.216Z,71.41
2019-02-16T03:19:30.430Z,71.41
2019-02-16T03:20:38.456Z,71.43
2019-02-16T03:21:46.759Z,71.46
2019-02-16T03:23:17.556Z,71.43
2019-02-16T03:24:25.651Z,71.43
2019-02-16T03:25:33.592Z,71.39
2019-02-16T03:26:49.070Z,71.42
2019-02-16T03:28:13.409Z,71.46
2019-02-16T03:29:40.187Z,71.51
2019-02-16T03:31:25.897Z,71.52
2019-02-16T03:33:06.865Z,71.49
2019-02-16T03:34:31.443Z,71.57
2019-02-16T03:35:59.168Z,71.60
2019-02-16T03:37:32.896Z,71.61
2019-02-16T03:39:12.273Z,71.55
2019-02-16T03:40:20.363Z,71.55
2019-02-16T03:41:28.648Z,71.51
2019-02-16T03:42:36.656Z,71.47
2019-02-16T03:43:44.939Z,71.47
2019-02-16T03:44:53.004Z,71.46
2019-02-16T03:46:00.941Z,71.48
2019-02-16T03:47:09.025Z,71.50
2019-02-16T03:48:17.373Z,71.51
2019-02-16T03:49:25.648Z,71.51
2019-02-16T03:50:33.636Z,71.53
2019-02-16T03:51:41.701Z,71.51
2019-02-16T03:52:49.949Z,71.49
2019-02-16T03:53:58.578Z,71.49
2019-02-16T03:55:07.524Z,71.50
2019-02-16T03:56:15.664Z,71.48
2019-02-16T03:57:23.828Z,71.48
2019-02-16T03:58:31.975Z,71.47
2019-02-16T03:59:40.434Z,71.43
2019-02-16T04:00:48.862Z,71.44
2019-02-16T04:01:56.897Z,71.46
2019-02-16T04:03:05.443Z,71.42
2019-02-16T04:04:13.627Z,71.37
2019-02-16T04:05:22.245Z,71.37
2019-02-16T04:06:30.287Z,71.36
2019-02-16T04:07:38.689Z,71.35
2019-02-16T04:08:46.947Z,71.36
2019-02-16T04:09:55.248Z,71.35
2019-02-16T04:11:03.141Z,71.39
2019-02-16T04:12:11.334Z,71.38
2019-02-16T04:13:19.784Z,71.36
2019-02-16T04:14:27.978Z,71.32
2019-02-16T04:15:36.080Z,71.33
2019-02-16T04:16:44.170Z,71.32
2019-02-16T04:17:53.091Z,71.29
2019-02-16T04:19:01.283Z,71.27
2019-02-16T04:20:09.495Z,71.25
2019-02-16T04:21:17.787Z,71.24
2019-02-16T04:22:25.815Z,71.20
2019-02-16T04:23:34.084Z,71.20
2019-02-16T04:24:42.588Z,71.23
2019-02-16T04:25:50.579Z,71.26
2019-02-16T04:26:58.575Z,71.21
2019-02-16T04:28:06.878Z,71.21
2019-02-16T04:29:15.185Z,71.21
2019-02-16T04:30:23.648Z,71.16
2019-02-16T04:31:31.800Z,71.16
2019-02-16T04:32:40.192Z,71.17
2019-02-16T04:33:48.760Z,71.18
2019-02-16T04:34:57.144Z,71.17
2019-02-16T04:36:05.407Z,71.13
2019-02-16T04:37:13.699Z,71.13
2019-02-16T04:38:21.760Z,71.07
2019-02-16T04:39:29.895Z,71.01
2019-02-16T04:40:38.050Z,70.94
2019-02-16T04:41:46.396Z,70.92
2019-02-16T04:42:54.484Z,70.92
2019-02-16T04:44:02.724Z,70.91
2019-02-16T04:45:11.117Z,70.90
2019-02-16T04:46:19.715Z,70.83
2019-02-16T04:47:30.562Z,70.77
2019-02-16T04:48:38.662Z,70.78
2019-02-16T04:49:47.151Z,70.75
2019-02-16T04:50:55.330Z,70.73
2019-02-16T04:52:03.841Z,70.70
2019-02-16T04:53:12.443Z,70.70
2019-02-16T04:54:20.779Z,70.65
2019-02-16T04:55:28.978Z,70.61
2019-02-16T04:56:37.176Z,70.60
2019-02-16T04:57:45.445Z,70.54
2019-02-16T04:58:53.966Z,70.52
2019-02-16T05:00:02.264Z,70.50
2019-02-16T05:01:10.606Z,70.50
2019-02-16T05:02:19.128Z,70.49
2019-02-16T05:03:27.394Z,70.48
2019-02-16T05:04:35.707Z,70.49
2019-02-16T05:05:44.187Z,70.51
2019-02-16T05:06:52.725Z,70.45
2019-02-16T05:08:00.917Z,70.43
2019-02-16T05:09:09.685Z,70.45
2019-02-16T05:10:17.685Z,70.42
2019-02-16T05:11:26.458Z,70.45
2019-02-16T05:12:34.840Z,70.43
2019-02-16T05:13:43.067Z,70.42
2019-02-16T05:14:51.355Z,70.41
2019-02-16T05:16:05.878Z,70.38
2019-02-16T05:17:14.315Z,70.29
2019-02-16T05:18:22.959Z,70.25
2019-02-16T05:19:32.091Z,70.22
2019-02-16T05:20:40.565Z,70.20
2019-02-16T05:21:49.473Z,70.18
2019-02-16T05:22:57.756Z,70.15
2019-02-16T05:24:05.825Z,70.15
2019-02-16T05:25:14.511Z,70.12
2019-02-16T05:26:23.509Z,70.11
2019-02-16T05:27:32.525Z,70.10
2019-02-16T05:28:40.783Z,70.12
2019-02-16T05:29:49.576Z,70.11
2019-02-16T05:30:58.027Z,70.13
2019-02-16T05:32:06.264Z,70.15
2019-02-16T05:33:14.716Z,70.15
2019-02-16T05:34:23.520Z,70.12
2019-02-16T05:35:31.977Z,70.11
2019-02-16T05:36:40.470Z,70.12
2019-02-16T05:37:48.555Z,70.10
2019-02-16T05:38:57.023Z,70.06
2019-02-16T05:40:07.943Z,70.07
2019-02-16T05:41:17.469Z,70.01
2019-02-16T05:42:28.223Z,69.95
2019-02-16T05:43:37.736Z,69.84
2019-02-16T05:44:47.474Z,69.74
2019-02-16T05:45:56.653Z,69.69
2019-02-16T05:47:06.112Z,69.57
2019-02-16T05:48:15.523Z,69.45
2019-02-16T05:49:25.394Z,69.34
2019-02-16T05:50:36.246Z,69.26
2019-02-16T05:51:45.773Z,69.22
2019-02-16T05:52:55.430Z,69.17
2019-02-16T05:54:05.481Z,69.11
2019-02-16T05:55:15.126Z,69.06
2019-02-16T05:56:24.666Z,69.03
2019-02-16T05:57:33.655Z,69.01
2019-02-16T05:58:43.640Z,69.00
2019-02-16T05:59:54.588Z,69.02
2019-02-16T06:01:04.480Z,69.02
2019-02-16T06:02:14.532Z,69.00
2019-02-16T06:03:24.862Z,68.95
2019-02-16T06:04:35.695Z,68.85
2019-02-16T06:05:45.806Z,68.76
2019-02-16T06:06:56.507Z,68.72
2019-02-16T06:08:06.063Z,68.64
2019-02-16T06:09:15.962Z,68.54
2019-02-16T06:10:26.702Z,68.46
2019-02-16T06:11:36.357Z,68.40
2019-02-16T06:12:45.442Z,68.31
2019-02-16T06:13:55.317Z,68.23
2019-02-16T06:15:07.773Z,68.19
2019-02-16T06:16:17.297Z,68.09
2019-02-16T06:17:27.985Z,68.01
2019-02-16T06:18:38.790Z,67.93
2019-02-16T06:19:48.371Z,67.92
2019-02-16T06:20:58.114Z,67.83
2019-02-16T06:22:07.910Z,67.85
2019-02-16T06:23:17.859Z,67.70
2019-02-16T06:24:27.853Z,67.62
2019-02-16T06:25:38.105Z,67.43
2019-02-16T06:26:48.166Z,67.30
2019-02-16T06:27:58.720Z,67.18
2019-02-16T06:29:09.144Z,67.04
2019-02-16T06:30:18.665Z,67.09
2019-02-16T06:31:28.280Z,66.97
2019-02-16T06:32:36.664Z,66.88
2019-02-16T06:33:45.473Z,66.67
2019-02-16T06:34:56.132Z,66.44
2019-02-16T06:36:06.666Z,66.35
2019-02-16T06:37:22.545Z,66.28
2019-02-16T06:38:31.237Z,65.93
2019-02-16T06:39:40.118Z,65.90
2019-02-16T06:40:49.260Z,65.78
2019-02-16T06:41:57.967Z,65.86
2019-02-16T06:43:06.637Z,65.70
2019-02-16T06:44:15.437Z,65.73
2019-02-16T06:45:24.040Z,65.70
2019-02-16T06:46:33.038Z,65.66
2019-02-16T06:47:41.730Z,65.43
2019-02-16T06:48:50.704Z,65.42
2019-02-16T06:49:59.403Z,65.39
2019-02-16T06:51:08.476Z,65.45
2019-02-16T06:52:17.136Z,65.16
2019-02-16T06:53:25.794Z,65.07
2019-02-16T06:54:34.417Z,64.86
2019-02-16T06:55:44.395Z,64.70
2019-02-16T06:57:11.227Z,64.70
2019-02-16T06:58:20.300Z,64.62
2019-02-16T06:59:29.226Z,64.37
2019-02-16T07:01:28.477Z,64.13
2019-02-16T07:02:40.446Z,64.02
2019-02-16T07:03:49.707Z,63.47
2019-02-16T07:04:58.481Z,63.58
2019-02-16T07:06:07.215Z,63.52
2019-02-16T07:07:16.210Z,63.21
2019-02-16T07:08:24.669Z,63.27
2019-02-16T07:10:38.961Z,62.48
2019-02-16T07:11:47.160Z,62.19
2019-02-16T07:12:55.659Z,62.03
2019-02-16T07:14:04.849Z,61.79
2019-02-16T07:15:13.811Z,61.85
2019-02-16T07:16:24.332Z,61.89
2019-02-16T07:17:52.696Z,61.52
2019-02-16T07:19:03.385Z,61.40
2019-02-16T07:20:11.948Z,61.25
2019-02-16T07:21:20.845Z,61.05
2019-02-16T07:22:29.739Z,60.74
2019-02-16T07:23:38.428Z,60.83
2019-02-16T07:24:47.169Z,60.08
2019-02-16T07:25:55.725Z,60.00
2019-02-16T07:27:04.429Z,59.84
2019-02-16T07:28:15.654Z,59.75
2019-02-16T07:29:24.062Z,59.84
2019-02-16T07:30:32.723Z,59.46
2019-02-16T07:31:42.496Z,58.74
2019-02-16T07:32:50.914Z,58.73
2019-02-16T07:33:59.487Z,58.52
2019-02-16T07:35:09.612Z,58.47
2019-02-16T07:36:18.397Z,58.35
2019-02-16T07:37:27.195Z,57.59
2019-02-16T07:38:35.856Z,57.24
2019-02-16T07:39:45.302Z,57.08
2019-02-16T07:40:53.875Z,56.74
2019-02-16T07:42:29.939Z,56.39
2019-02-16T07:43:48.539Z,56.10
2019-02-16T07:44:59.651Z,55.10
2019-02-16T07:46:28.179Z,55.29
2019-02-16T07:47:38.804Z,54.77
2019-02-16T07:48:50.589Z,53.80
2019-02-16T07:50:05.282Z,54.52
2019-02-16T07:51:15.503Z,53.29
2019-02-16T07:52:24.093Z,53.43
2019-02-16T07:53:43.747Z,52.42
2019-02-16T07:55:03.150Z,51.92
2019-02-16T07:56:13.295Z,50.48
2019-02-16T07:57:23.495Z,49.78
2019-02-16T07:58:34.019Z,49.06
2019-02-16T07:59:46.802Z,47.65
2019-02-16T08:01:19.483Z,46.24
2019-02-16T08:02:29.715Z,44.06
2019-02-16T08:03:45.654Z,42.29
2019-02-16T08:04:56.351Z,40.09
2019-02-16T08:06:04.663Z,37.37
2019-02-16T08:07:15.272Z,37.49
2019-02-16T08:08:31.568Z,35.46
2019-02-16T08:09:48.805Z,33.37
2019-02-16T08:11:17.939Z,33.23
2019-02-16T08:12:38.386Z,31.94
2019-02-16T08:13:51.326Z,30.33
2019-02-16T08:15:10.576Z,29.15
2019-02-16T08:16:26.232Z,26.86
2019-02-16T08:17:38.920Z,27.72
2019-02-16T08:18:59.419Z,26.66
2019-02-16T08:20:12.903Z,26.58
2019-02-16T08:21:35.381Z,26.82
2019-02-16T08:22:45.545Z,27.32
2019-02-16T08:23:59.443Z,26.91
2019-02-16T08:25:26.801Z,26.43
2019-02-16T08:26:35.007Z,25.27
2019-02-16T08:27:57.473Z,24.19
2019-02-16T08:29:16.857Z,22.24
2019-02-16T08:30:39.474Z,23.49
2019-02-16T08:31:49.969Z,22.10
2019-02-16T08:33:05.989Z,23.19
2019-02-16T08:34:19.687Z,22.62
2019-02-16T08:35:35.409Z,21.64
2019-02-16T08:36:52.262Z,22.72
2019-02-16T08:38:08.056Z,22.35
2019-02-16T08:39:21.620Z,21.65
2019-02-16T08:40:46.958Z,20.95
2019-02-16T08:42:00.180Z,21.96
2019-02-16T08:43:17.827Z,21.92
2019-02-16T08:44:34.174Z,20.93
2019-02-16T08:46:01.160Z,21.19
2019-02-16T08:47:14.408Z,20.29
2019-02-16T08:48:23.036Z,20.41
2019-02-16T08:49:32.882Z,19.85
2019-02-16T08:50:49.763Z,19.99
2019-02-16T08:52:15.006Z,18.42
2019-02-16T08:53:49.555Z,19.33
2019-02-16T08:54:56.718Z,18.73
2019-02-16T08:56:07.440Z,18.69
2019-02-16T08:57:23.829Z,19.00
2019-02-16T08:58:38.899Z,18.65
2019-02-16T09:00:05.409Z,18.61
2019-02-16T09:01:31.720Z,19.19
2019-02-16T09:02:46.250Z,18.97
2019-02-16T09:04:12.491Z,18.62
2019-02-16T09:05:21.711Z,17.93
2019-02-16T09:06:40.967Z,18.08
2019-02-16T09:07:55.607Z,17.40
2019-02-16T09:09:22.685Z,17.11
2019-02-16T09:10:48.968Z,17.16
2019-02-16T09:12:06.465Z,17.57
2019-02-16T09:13:17.364Z,17.42
2019-02-16T09:14:41.837Z,18.08
2019-02-16T09:15:54.852Z,18.13
2019-02-16T09:17:08.665Z,17.98
2019-02-16T09:18:28.587Z,17.98
2019-02-16T09:19:49.604Z,17.69
2019-02-16T09:21:02.683Z,17.24
2019-02-16T09:22:13.704Z,16.95
2019-02-16T09:23:33.107Z,17.06
2019-02-16T09:24:44.778Z,17.53
2019-02-16T09:26:02.702Z,16.97
2019-02-16T09:27:13.554Z,16.61
2019-02-16T09:28:23.750Z,16.51
2019-02-16T09:29:37.332Z,16.58
2019-02-16T09:30:47.879Z,16.36
2019-02-16T09:32:13.936Z,16.34
2019-02-16T09:33:27.551Z,16.16
2019-02-16T09:34:37.953Z,15.37
2019-02-16T09:35:57.930Z,15.52
2019-02-16T09:37:08.650Z,14.92
2019-02-16T09:38:21.960Z,14.20
2019-02-16T09:39:35.076Z,14.54
2019-02-16T09:41:01.535Z,14.80
2019-02-16T09:42:24.938Z,14.47
2019-02-16T09:43:33.135Z,15.10
2019-02-16T09:45:00.258Z,15.24
2019-02-16T09:46:10.828Z,15.00
2019-02-16T09:47:20.940Z,14.80
2019-02-16T09:48:36.792Z,13.75
2019-02-16T09:49:59.416Z,13.28
2019-02-16T09:51:13.833Z,13.69
2019-02-16T09:52:31.485Z,13.70
2019-02-16T09:53:48.485Z,13.18
2019-02-16T09:55:13.869Z,13.33
2019-02-16T09:56:30.451Z,12.20
2019-02-16T09:57:56.774Z,12.66
2019-02-16T09:59:09.913Z,12.12
2019-02-16T10:00:25.981Z,12.13
2019-02-16T10:01:39.141Z,12.32
2019-02-16T10:02:49.340Z,12.56
2019-02-16T10:03:59.985Z,12.34
2019-02-16T10:05:28.981Z,12.79
2019-02-16T10:06:51.975Z,13.04
2019-02-16T10:07:59.915Z,13.53
2019-02-16T10:09:10.464Z,12.96
2019-02-16T10:10:37.004Z,12.08
2019-02-16T10:11:47.252Z,12.50
2019-02-16T10:13:05.888Z,12.42
2019-02-16T10:14:22.459Z,12.07
2019-02-16T10:15:47.688Z,11.46
2019-02-16T10:16:57.696Z,11.01
2019-02-16T10:18:12.473Z,10.46
2019-02-16T10:19:41.033Z,11.10
2019-02-16T10:20:56.946Z,10.74
2019-02-16T10:22:15.695Z,10.94
2019-02-16T10:23:42.015Z,10.23
2019-02-16T10:25:09.154Z,10.78
2019-02-16T10:26:22.166Z,10.83
2019-02-16T10:27:41.392Z,10.83
2019-02-16T10:28:52.077Z,11.20
2019-02-16T10:30:02.113Z,10.86
2019-02-16T10:31:25.070Z,11.22
2019-02-16T10:32:47.355Z,11.09
2019-02-16T10:33:55.498Z,11.33
2019-02-16T10:35:05.336Z,11.16
2019-02-16T10:36:30.189Z,10.49
2019-02-16T10:37:40.388Z,10.52
2019-02-16T10:38:56.557Z,10.06
2019-02-16T10:40:10.528Z,10.41
2019-02-16T10:41:29.605Z,10.44
2019-02-16T10:42:39.694Z,10.88
2019-02-16T10:43:49.740Z,11.24
2019-02-16T10:45:18.211Z,11.11
2019-02-16T10:46:44.287Z,10.84
2019-02-16T10:48:03.230Z,10.55
2019-02-16T10:49:22.538Z,10.35
2019-02-16T10:50:38.389Z,10.29
2019-02-16T10:52:06.059Z,10.34
2019-02-16T10:53:31.994Z,10.29
2019-02-16T10:54:54.085Z,10.01
2019-02-16T10:56:07.275Z,9.63
2019-02-16T10:57:34.780Z,9.59
2019-02-16T10:58:47.842Z,9.71
2019-02-16T10:59:58.147Z,9.55
2019-02-16T11:01:07.120Z,9.24
2019-02-16T11:02:17.097Z,9.39
2019-02-16T11:03:26.834Z,9.36
2019-02-16T11:04:56.743Z,9.14
2019-02-16T11:06:06.448Z,9.00
2019-02-16T11:07:33.121Z,8.69
2019-02-16T11:08:43.065Z,8.81
2019-02-16T11:09:55.855Z,8.69
2019-02-16T11:11:09.991Z,8.58
2019-02-16T11:12:22.452Z,8.27
2019-02-16T11:13:47.819Z,8.09
2019-02-16T11:15:09.506Z,8.03
2019-02-16T11:16:37.294Z,7.96
2019-02-16T11:17:53.150Z,8.21
2019-02-16T11:19:15.166Z,8.34
2019-02-16T11:20:41.700Z,8.70
2019-02-16T11:22:00.291Z,8.52
2019-02-16T11:23:10.393Z,8.53
2019-02-16T11:24:24.012Z,8.80
2019-02-16T11:25:36.657Z,9.09
2019-02-16T11:27:03.155Z,9.46
2019-02-16T11:28:14.223Z,9.39
2019-02-16T11:29:32.303Z,9.27
2019-02-16T11:30:40.656Z,8.83
2019-02-16T11:31:53.429Z,8.80
2019-02-16T11:33:04.992Z,8.65
2019-02-16T11:34:33.136Z,8.83
2019-02-16T11:35:43.243Z,8.96
2019-02-16T11:36:52.954Z,8.82
2019-02-16T11:38:12.029Z,8.57
2019-02-16T11:39:38.261Z,8.38
2019-02-16T11:40:51.411Z,8.24
2019-02-16T11:42:07.551Z,7.84
2019-02-16T11:43:29.686Z,8.16
2019-02-16T11:44:45.875Z,8.50
2019-02-16T11:46:01.734Z,8.95
2019-02-16T11:47:14.265Z,9.26
2019-02-16T11:48:24.073Z,9.47
2019-02-16T11:49:32.398Z,9.29
2019-02-16T11:50:48.276Z,9.55
2019-02-16T11:52:01.170Z,9.73
2019-02-16T11:53:20.226Z,9.83
2019-02-16T11:54:32.641Z,9.62
2019-02-16T11:55:42.668Z,9.38
2019-02-16T11:57:01.863Z,9.34
2019-02-16T11:58:17.599Z,9.36
2019-02-16T11:59:30.491Z,9.22
2019-02-16T12:00:43.090Z,8.96
2019-02-16T12:01:59.336Z,8.89
2019-02-16T12:03:19.235Z,8.77
2019-02-16T12:04:29.531Z,9.23
2019-02-16T12:05:42.206Z,9.64
2019-02-16T12:06:52.042Z,9.69
2019-02-16T12:08:18.321Z,9.62
2019-02-16T12:09:41.175Z,9.52
2019-02-16T12:11:01.184Z,9.15
2019-02-16T12:12:11.565Z,9.05
2019-02-16T12:13:21.559Z,9.17
2019-02-16T12:14:45.547Z,9.14
2019-02-16T12:16:11.697Z,8.86
2019-02-16T12:17:24.442Z,9.08
2019-02-16T12:18:37.399Z,9.01
2019-02-16T12:19:56.613Z,8.87
2019-02-16T12:21:19.084Z,9.07
2019-02-16T12:22:41.935Z,8.95
2019-02-16T12:23:57.242Z,8.50
2019-02-16T12:25:17.371Z,8.55
2019-02-16T12:26:27.251Z,8.21
2019-02-16T12:27:46.040Z,8.38
2019-02-16T12:29:01.648Z,8.87
2019-02-16T12:30:16.475Z,9.38
2019-02-16T12:31:42.492Z,9.33
2019-02-16T12:32:52.560Z,9.47
2019-02-16T12:34:12.063Z,9.62
2019-02-16T12:35:28.286Z,9.37
2019-02-16T12:36:55.823Z,8.99
2019-02-16T12:38:14.439Z,8.83
2019-02-16T12:39:25.826Z,8.92
2019-02-16T12:40:38.419Z,8.69
2019-02-16T12:41:48.380Z,8.85
2019-02-16T12:43:14.170Z,8.71
2019-02-16T12:44:32.547Z,9.21
2019-02-16T12:45:50.836Z,9.29
2019-02-16T12:47:07.914Z,9.40
2019-02-16T12:48:16.247Z,9.35
2019-02-16T12:49:25.923Z,9.28
2019-02-16T12:50:45.138Z,9.36
2019-02-16T12:52:04.076Z,9.29
2019-02-16T12:53:14.273Z,9.15
2019-02-16T12:54:24.416Z,8.95
2019-02-16T12:55:50.561Z,8.87
2019-02-16T12:57:03.699Z,8.62
2019-02-16T12:58:18.931Z,8.65
2019-02-16T12:59:30.913Z,8.46
2019-02-16T13:00:57.078Z,8.53
2019-02-16T13:02:08.455Z,8.46
2019-02-16T13:03:24.171Z,8.09
2019-02-16T13:04:40.015Z,8.21
2019-02-16T13:06:06.030Z,8.03
2019-02-16T13:07:22.447Z,8.10
2019-02-16T13:08:51.013Z,7.96
2019-02-16T13:10:01.147Z,7.77
2019-02-16T13:11:13.888Z,8.00
2019-02-16T13:12:29.939Z,8.25
2019-02-16T13:13:38.457Z,8.51
2019-02-16T13:15:04.347Z,8.52
2019-02-16T13:16:29.751Z,8.65
2019-02-16T13:17:42.891Z,8.48
2019-02-16T13:18:55.503Z,8.33
2019-02-16T13:20:08.298Z,8.15
2019-02-16T13:21:18.474Z,8.29
2019-02-16T13:22:28.355Z,8.33
2019-02-16T13:23:54.528Z,8.44
2019-02-16T13:25:04.598Z,8.51
2019-02-16T13:26:25.071Z,8.70
2019-02-16T13:27:37.942Z,8.86
2019-02-16T13:28:45.795Z,9.01
2019-02-16T13:30:01.775Z,9.01
2019-02-16T13:31:17.685Z,8.99
2019-02-16T13:32:39.380Z,8.91
2019-02-16T13:33:49.870Z,8.95
2019-02-16T13:34:59.794Z,9.02
2019-02-16T13:36:16.186Z,8.94
2019-02-16T13:37:39.450Z,8.96
2019-02-16T13:39:05.841Z,8.80
2019-02-16T13:40:23.359Z,8.69
2019-02-16T13:41:45.852Z,8.52
2019-02-16T13:43:01.634Z,8.49
2019-02-16T13:44:11.685Z,8.59
2019-02-16T13:45:27.429Z,8.56
2019-02-16T13:46:38.560Z,8.44
2019-02-16T13:48:04.791Z,8.43
2019-02-16T13:49:14.661Z,8.49
2019-02-16T13:50:25.248Z,8.59
2019-02-16T13:51:51.945Z,8.87
2019-02-16T13:53:01.844Z,8.76
2019-02-16T13:54:23.452Z,9.43
2019-02-16T13:55:49.326Z,9.70
2019-02-16T13:57:02.770Z,9.88
2019-02-16T13:58:18.714Z,10.06
2019-02-16T13:59:44.528Z,10.04
2019-02-16T14:00:54.387Z,10.03
2019-02-16T14:02:10.272Z,10.36
2019-02-16T14:03:22.888Z,10.68
2019-02-16T14:04:43.322Z,10.79
2019-02-16T14:06:09.740Z,10.93
2019-02-16T14:07:19.703Z,10.97
2019-02-16T14:08:38.072Z,11.08
2019-02-16T14:09:53.669Z,10.99
2019-02-16T14:11:19.583Z,10.93
2019-02-16T14:12:32.265Z,10.91
2019-02-16T14:13:45.221Z,10.96
2019-02-16T14:15:03.897Z,11.05
2019-02-16T14:16:14.192Z,11.12
2019-02-16T14:17:24.060Z,11.20
2019-02-16T14:18:32.403Z,11.22
2019-02-16T14:19:40.849Z,11.35
2019-02-16T14:20:49.213Z,11.38
2019-02-16T14:21:58.927Z,11.36
2019-02-16T14:23:07.309Z,11.28
2019-02-16T14:24:15.487Z,11.17
2019-02-16T14:25:31.272Z,11.45
2019-02-16T14:26:40.182Z,11.59
2019-02-16T14:27:49.280Z,11.74
2019-02-16T14:28:57.301Z,11.95
2019-02-16T14:30:08.347Z,12.14
2019-02-16T14:31:18.054Z,12.21
2019-02-16T14:32:26.705Z,12.20
2019-02-16T14:33:34.705Z,12.09
2019-02-16T14:34:42.889Z,12.10
2019-02-16T14:35:51.395Z,12.15
2019-02-16T14:37:00.281Z,12.38
2019-02-16T14:38:15.991Z,12.58
2019-02-16T14:39:25.967Z,12.74
2019-02-16T14:40:34.132Z,13.10
2019-02-16T14:41:42.518Z,13.62
2019-02-16T14:42:50.815Z,13.97
2019-02-16T14:43:59.067Z,14.56
2019-02-16T14:45:11.877Z,15.10
2019-02-16T14:46:19.988Z,15.53
2019-02-16T14:47:28.018Z,16.04
2019-02-16T14:48:36.390Z,16.50
2019-02-16T14:49:44.778Z,16.90
2019-02-16T14:50:52.943Z,17.21
2019-02-16T14:52:01.350Z,17.54
2019-02-16T14:53:09.702Z,17.92
2019-02-16T14:54:18.753Z,18.13
2019-02-16T14:55:27.277Z,18.54
2019-02-16T14:56:35.443Z,18.57
2019-02-16T14:57:45.084Z,18.96
2019-02-16T14:58:53.058Z,19.32
2019-02-16T15:00:01.309Z,19.63
2019-02-16T15:01:09.472Z,19.60
2019-02-16T15:02:17.682Z,19.94
2019-02-16T15:03:26.105Z,20.23
2019-02-16T15:04:34.366Z,20.12
2019-02-16T15:05:42.487Z,20.43
2019-02-16T15:06:51.008Z,20.63
2019-02-16T15:07:59.145Z,20.97
2019-02-16T15:09:08.867Z,21.21
2019-02-16T15:10:17.334Z,21.25
2019-02-16T15:11:25.935Z,21.61
2019-02-16T15:12:35.307Z,21.79
2019-02-16T15:13:45.030Z,22.32
2019-02-16T15:14:53.772Z,22.32
2019-02-16T15:16:02.017Z,22.28
2019-02-16T15:17:10.421Z,22.65
2019-02-16T15:18:19.152Z,22.84
2019-02-16T15:19:27.610Z,22.91
2019-02-16T15:20:36.350Z,23.17
2019-02-16T15:21:44.872Z,23.10
2019-02-16T15:22:54.709Z,23.36
2019-02-16T15:24:02.870Z,23.46
2019-02-16T15:25:12.935Z,23.68
2019-02-16T15:26:28.331Z,23.89
2019-02-16T15:27:31.448Z,23.83
2019-02-16T15:28:41.029Z,24.00
2019-02-16T15:29:50.000Z,23.74
2019-02-16T15:30:58.773Z,23.87
2019-02-16T15:32:07.116Z,24.08
2019-02-16T15:33:15.976Z,24.13
2019-02-16T15:34:24.586Z,24.04
2019-02-16T15:35:33.136Z,24.20
2019-02-16T15:36:42.280Z,24.23
2019-02-16T15:37:50.786Z,24.37
2019-02-16T15:38:59.204Z,24.52